Tiempo atmosférico en la estación meteorológica de Valderrobres, Teruel (482 m.)



Fecha
DESCASC
Temp. máxima en grados centígrados (hora)
DESCASC
Temp. mínima en grados centígrados (hora)
DESCASC
Temp. media en grados centígrados
DESCASC
Racha de viento máxima en m/sg (hora)
DESCASC
Velocidad máxima media en intervalos de 10 minutos(hora)
DESCASC
Precipitaciones diarias en mm
DESCASC
Precipitaciones de 00:00 a 06:00 en mm
DESCASC
Precipitaciones de 06:00 a 12:00 en mm
DESCASC
Precipitaciones de 12:00 a 18:00 en mm
DESCASC
Precipitaciones de 18:00 a 24:00 en mm
DESCASC
16-06-2019 28.7 (15:30) 7.5 (06:50) 18.1 8.89 (16:10) 4.44 (16:10) 0 0 0 0 0
15-06-2019 26.9 (18:00) 12.1 (04:30) 19.5 7.78 (13:10) 4.17 (13:00) 0 0 0 0 0
14-06-2019 28.3 (17:30) 11.4 (02:00) 19.8 7.5 (13:50) 4.17 (13:50) 0 0 0 0 0
13-06-2019 23.8 (13:50) 8.8 (00:00) 16.3 11.11 (15:20) 5.28 (10:40) 0 0 0 0 0
12-06-2019 22.8 (15:30) 3.7 (00:00) 13.2 8.61 (15:20) 4.17 (19:20) 0 0 0 0 0
11-06-2019 17.8 (19:40) 11.4 (00:00) 14.6 11.94 (19:40) 5.83 (19:40) 0 0 0 0 0
10-06-2019 23.5 (18:00) 13.3 (00:00) 18.4 8.89 (00:20) 5 (16:00) 0 0 0 0 0
09-06-2019 27.9 (17:00) 14 (00:00) 20.9 10 (23:50) 5.28 (23:50) 0 0 0 0 0
08-06-2019 23.8 (14:30) 5.8 (00:00) 14.8 10 (14:30) 5.28 (13:40) 0 0 0 0 0
07-06-2019 23.9 (18:10) 10.6 (00:00) 17.3 10.28 (09:50) 6.11 (09:40) 0 0 0 0 0
06-06-2019 23.1 (14:20) 6.3 (00:00) 14.7 16.11 (15:30) 8.61 (15:30) 0 0 0 0 0
05-06-2019 25 (00:30) 12.6 (00:00) 18.8 13.33 (14:20) 8.61 (16:00) 0 0 0 0 0
04-06-2019 33.3 (15:20) 14.8 (00:00) 24 14.72 (17:30) 5.56 (17:30) 0 0 0 0 0
03-06-2019 31.6 (14:30) 11.9 (00:00) 21.8 9.72 (17:30) 5.56 (17:30) 0 0 0 0 0
02-06-2019 31.7 (15:50) 9.4 (00:00) 20.6 7.78 (17:40) 4.44 (17:00) 0 0 0 0 0
01-06-2019 29.6 (15:50) 9.8 (00:00) 19.7 7.22 (17:30) 3.89 (16:50) 0 0 0 0 0
31-05-2019 28.3 (15:50) 8.6 (00:00) 18.4 6.67 (18:30) 3.89 (17:10) 0 0 0 0 0
30-05-2019 27.7 (19:00) 6 (00:00) 16.9 5.56 (11:40) 3.06 (10:40) 0 0 0 0 0
29-05-2019 20.5 (18:20) 10 (00:00) 15.3 11.67 (02:20) 6.11 (16:00) 0 0 0 0 0
28-05-2019 19.1 (15:10) 10.9 (00:00) 15 16.39 (18:20) 9.44 (18:20) 0 0 0 0 0
27-05-2019 23.3 (18:50) 12.5 (00:00) 17.9 13.33 (23:40) 6.67 (19:00) 0 0 0 0 0
26-05-2019 21.2 (18:40) 11.2 (00:00) 16.2 10.28 (15:40) 5 (16:50) 0 0 0 0 0
25-05-2019 20.7 (18:20) 11.1 (00:00) 15.9 10.28 (20:30) 5.83 (20:20) 0.2 0.2 0 0 0
24-05-2019 20.1 (00:00) 12.2 (00:00) 16.2 8.06 (17:40) 3.89 (03:40) 21 3.2 9.8 6.2 1.8
23-05-2019 27.8 (13:40) 8.4 (00:00) 18.1 7.5 (16:50) 3.33 (18:00) 0 0 0 0 0
22-05-2019 25.4 (18:20) 5.8 (00:00) 15.6 8.89 (16:00) 3.89 (16:00) 0 0 0 0 0
21-05-2019 23.3 (17:10) 4 (06:40) 13.6 7.22 (15:50) 3.89 (15:50) 0 0 0 0 0

Gráficas

Temp. máximas Temp. mínimas Temp. medias Precipitaciones Rachas de viento máximas Velocidades máximas media en intervalos de 10 minutos

Datos horarios

Fecha y hora oficial Temperatura (ºC) Velocidad del viento (km/h) Dirección del viento Racha (km/h) Dirección de racha Precipitación (mm) Presión (hPa) Tendencia (hPa) Humedad (%)
2019-06-19 23:00:00 22.4 3 Sur 15 Sudeste 0 -- -- 44
2019-06-19 22:00:00 24.6 9 Sudeste 14 Sudeste 0 -- -- 38
2019-06-19 21:00:00 27.6 5 Sudeste 18 Este 0 -- -- 34
2019-06-19 20:00:00 28.8 11 Sudeste 24 Sudeste 0 -- -- 31
2019-06-19 19:00:00 29.3 9 Sudeste 25 Sudeste 0 -- -- 31
2019-06-19 18:00:00 30.4 13 Sudeste 27 Este 0 -- -- 32
2019-06-19 17:00:00 30.3 11 Sudeste 26 Sudeste 0 -- -- 38
2019-06-19 16:00:00 31.5 12 Sudeste 26 Sudoeste 0 -- -- 31
2019-06-19 15:00:00 31.3 9 Nordeste -- -- -- -- -- 30
2019-06-19 14:00:00 29.9 6 Norte 19 Noroeste 0 -- -- 29
2019-06-19 13:00:00 29.1 5 Norte -- -- -- -- -- 31
2019-06-19 12:00:00 -- -- -- -- -- -- -- -- --
2019-06-19 11:00:00 -- -- -- -- -- -- -- -- --
2019-06-19 10:00:00 -- -- -- -- -- -- -- -- --
2019-06-19 09:00:00 -- -- -- -- -- -- -- -- --
2019-06-19 08:00:00 -- -- -- -- -- -- -- -- --
2019-06-19 07:00:00 -- -- -- -- -- -- -- -- --
2019-06-19 06:00:00 -- -- -- -- -- -- -- -- --
2019-06-19 05:00:00 -- -- -- -- -- -- -- -- --
2019-06-19 04:00:00 -- -- -- -- -- -- -- -- --
2019-06-19 03:00:00 -- -- -- -- -- -- -- -- --
2019-06-19 02:00:00 -- -- -- -- -- -- -- -- --
2019-06-19 01:00:00 -- -- -- -- -- -- -- -- --
2019-06-19 00:00:00 -- -- -- -- -- -- -- -- --
2019-06-18 23:00:00 -- -- -- -- -- -- -- -- --
2019-06-18 22:00:00 -- -- -- -- -- -- -- -- --
2019-06-18 21:00:00 -- -- -- -- -- -- -- -- --
2019-06-18 20:00:00 -- -- -- -- -- -- -- -- --
2019-06-18 19:00:00 30 6 Sudoeste 41 Este 0 -- -- 24
2019-06-18 18:00:00 30 10 Este 48 Sudeste 0 -- -- 28
2019-06-18 17:00:00 31.1 15 Sudeste 38 Nordeste 0 -- -- 32
2019-06-18 16:00:00 31.9 14 Sudeste 34 Sudeste 0 -- -- 33
2019-06-18 15:00:00 32.9 14 Sudeste 37 Sur 0 -- -- 28
2019-06-18 14:00:00 32.9 13 Sur 36 Sudeste 0 -- -- 23
2019-06-18 13:00:00 32.8 14 Sudeste 32 Este 0 -- -- 21
2019-06-18 12:00:00 31.9 17 Sudeste 33 Sudeste 0 -- -- 21
2019-06-18 11:00:00 31.2 9 Sudeste 22 Sudeste 0 -- -- 20
2019-06-18 10:00:00 26.6 0 Calma 6 Nordeste 0 -- -- 32
2019-06-18 09:00:00 22.6 4 Este 12 Noroeste 0 -- -- 39
2019-06-18 08:00:00 18.2 0 Calma 13 Oeste 0 -- -- 48
2019-06-18 07:00:00 14.9 2 Oeste 8 Oeste 0 -- -- 55
2019-06-18 06:00:00 16.1 3 Sur 10 Sudoeste 0 -- -- 50
2019-06-18 05:00:00 16 3 Sur 5 Sudoeste 0 -- -- 45
2019-06-18 04:00:00 16.2 0 Calma 5 Sudoeste 0 -- -- 55
2019-06-18 03:00:00 18.2 3 Oeste 8 Sudeste 0 -- -- 45
2019-06-18 02:00:00 18.1 4 Sur 9 Sudoeste 0 -- -- 40
2019-06-18 01:00:00 18.1 2 Sudoeste 10 Sudoeste 0 -- -- 42
2019-06-18 00:00:00 20 3 Sudoeste 12 Sudoeste 0 -- -- 41
2019-06-17 23:00:00 22.8 4 Oeste 24 Sudeste 0 -- -- 38
2019-06-17 22:00:00 24.6 4 Sudoeste 21 Sudeste 0 -- -- 32
2019-06-17 21:00:00 26.4 9 Este 28 Sudeste 0 -- -- 31
2019-06-17 20:00:00 27.7 15 Sudeste 32 Sudeste 0 -- -- 32
2019-06-17 19:00:00 28.8 15 Sudeste 30 Sudeste 0 -- -- 32
2019-06-17 18:00:00 30.2 15 Sudeste 29 Sudeste 0 -- -- 33
2019-06-17 17:00:00 31.3 7 Sur 24 Este 0 -- -- 31
2019-06-17 16:00:00 30.2 14 Sudeste 27 Este 0 -- -- 34
2019-06-17 15:00:00 30.9 11 Este 23 Nordeste 0 -- -- 33
2019-06-17 14:00:00 31 6 Nordeste 23 Nordeste 0 -- -- 32
2019-06-17 13:00:00 29.8 7 Noroeste 17 Este 0 -- -- 32
2019-06-17 12:00:00 28.4 4 Este 10 Oeste 0 -- -- 32
2019-06-17 11:00:00 26.6 3 Nordeste 9 Este 0 -- -- 36
2019-06-17 10:00:00 23.9 0 Calma -- -- 0 -- -- 44
2019-06-17 09:00:00 19.2 0 Calma -- -- 0 -- -- 58
2019-06-17 08:00:00 13.7 0 Calma -- -- 0 -- -- 76
2019-06-17 07:00:00 10.8 0 Calma -- -- 0 -- -- 87
2019-06-17 06:00:00 11.1 0 Calma -- -- 0 -- -- 85
2019-06-17 05:00:00 11.8 0 Calma -- -- 0 -- -- 82
2019-06-17 04:00:00 12.5 0 Calma 4 Sudoeste 0 -- -- 80
2019-06-17 03:00:00 13.4 0 Calma 3 Oeste 0 -- -- 76
2019-06-17 02:00:00 14.2 0 Calma 4 Oeste 0 -- -- 76
2019-06-17 01:00:00 15.3 0 Calma 5 Oeste 0 -- -- 72
2019-06-17 00:00:00 16.7 0 Calma 5 Oeste 0 -- -- 65
2019-06-16 23:00:00 19.1 0 Calma 6 Sudoeste 0 -- -- 58
2019-06-16 22:00:00 21.5 3 Sudoeste 8 Sudeste 0 -- -- 47
2019-06-16 21:00:00 23.5 3 Sudeste 19 Este 0 -- -- 42
2019-06-16 20:00:00 24.5 10 Sudeste 22 Sudeste 0 -- -- 39
2019-06-16 19:00:00 25.9 12 Este 21 Este 0 -- -- 38
2019-06-16 18:00:00 27.1 12 Sudeste 19 Sudeste 0 -- -- 36
2019-06-16 17:00:00 27.2 12 Sudeste 32 Sudeste 0 -- -- 37
2019-06-16 16:00:00 28.4 12 Sudeste 27 Sudeste 0 -- -- 35
2019-06-16 15:00:00 28.1 12 Sudeste 24 Este 0 -- -- 36
2019-06-16 14:00:00 27.1 9 Nordeste 22 Nordeste 0 -- -- 39
2019-06-16 13:00:00 25.4 7 Nordeste 16 Nordeste 0 -- -- 42
2019-06-16 12:00:00 24.2 5 Nordeste 15 Este 0 -- -- 41
2019-06-16 11:00:00 22.6 6 Este 15 Este 0 -- -- 38
2019-06-16 10:00:00 20.3 0 Calma 5 Nordeste 0 -- -- 43
2019-06-16 09:00:00 16.1 0 Calma -- -- 0 -- -- 57
2019-06-16 08:00:00 11.2 0 Calma -- -- 0 -- -- 74
2019-06-16 07:00:00 7.7 0 Calma -- -- 0 -- -- 86
2019-06-16 06:00:00 8 0 Calma -- -- 0 -- -- 84
2019-06-16 05:00:00 8.7 0 Calma -- -- 0 -- -- 82
2019-06-16 04:00:00 9.6 0 Calma -- -- 0 -- -- 77
2019-06-16 03:00:00 10.5 0 Calma -- -- 0 -- -- 76
2019-06-16 02:00:00 11.4 0 Calma 4 Oeste 0 -- -- 73
2019-06-16 01:00:00 12.7 2 Oeste 5 Sudoeste 0 -- -- 67
2019-06-16 00:00:00 14.7 0 Calma 10 Oeste 0 -- -- 58
2019-06-15 23:00:00 17.6 2 Sudeste 8 Sudoeste 0 -- -- 50
2019-06-15 22:00:00 20.8 4 Sudoeste 8 Sur 0 -- -- 37
2019-06-15 21:00:00 24.8 6 Noroeste 19 Noroeste 0 -- -- 30
2019-06-15 20:00:00 26 6 Norte 20 Nordeste 0 -- -- 28
2019-06-15 19:00:00 26.2 6 Nordeste 23 Oeste 0 -- -- 28
2019-06-15 18:00:00 26.9 7 Sudoeste 21 Oeste 0 -- -- 29
2019-06-15 17:00:00 26.5 9 Oeste 26 Noroeste 0 -- -- 28
2019-06-15 16:00:00 25.6 11 Oeste 28 Oeste 0 -- -- 29
2019-06-15 15:00:00 24.9 12 Noroeste 26 Noroeste 0 -- -- 31
2019-06-15 14:00:00 23.9 11 Noroeste 28 Noroeste 0 -- -- 33
2019-06-15 13:00:00 22.8 15 Noroeste 26 Oeste 0 -- -- 34
2019-06-15 12:00:00 21.9 8 Noroeste 18 Oeste 0 -- -- 41
2019-06-15 11:00:00 19.8 8 Noroeste 19 Oeste 0 -- -- 47
2019-06-15 10:00:00 17.8 10 Noroeste 21 Oeste 0 -- -- 55
2019-06-15 09:00:00 16.5 11 Noroeste 23 Oeste 0 -- -- 62
2019-06-15 08:00:00 15.2 0 Calma 5 Nordeste 0 -- -- 72
2019-06-15 07:00:00 13.1 6 Sur 13 Sudoeste 0 -- -- 77
2019-06-15 06:00:00 14 5 Oeste 23 Oeste 0 -- -- 75
2019-06-15 05:00:00 13.7 13 Oeste 23 Oeste 0 -- -- 73
2019-06-15 04:00:00 12.5 4 Oeste 6 Oeste 0 -- -- 76
2019-06-15 03:00:00 14.6 0 Calma 9 Oeste 0 -- -- 71
2019-06-15 02:00:00 16.4 3 Oeste 9 Oeste 0 -- -- 63
2019-06-15 01:00:00 18.8 0 Calma 10 Sudoeste 0 -- -- 54
2019-06-15 00:00:00 21.9 5 Sur 12 Sudeste 0 -- -- 45
2019-06-14 23:00:00 21.9 5 Sur 12 Sudeste 0 -- -- 47
2019-06-14 22:00:00 21.9 3 Sur 11 Sur 0 -- -- 52
2019-06-14 21:00:00 25.2 7 Sudeste 21 Sudeste 0 -- -- 44
2019-06-14 20:00:00 26.6 11 Sudeste 24 Este 0 -- -- 42
2019-06-14 19:00:00 26.3 11 Este 22 Sudeste 0 -- -- 42
2019-06-14 18:00:00 27.4 10 Este 24 Este 0 -- -- 39
2019-06-14 17:00:00 27.8 4 Norte 15 Norte 0 -- -- 38
2019-06-14 16:00:00 27.1 5 Norte 14 Oeste 0 -- -- 40
2019-06-14 15:00:00 25.2 7 Noroeste 15 Noroeste 0 -- -- 43
2019-06-14 14:00:00 22.3 14 Noroeste 27 Noroeste 0 -- -- 48
2019-06-14 13:00:00 23.2 6 Noroeste 23 Noroeste 0 -- -- 41
2019-06-14 12:00:00 23.2 13 Noroeste 23 Oeste 0 -- -- 43
2019-06-14 11:00:00 21.2 2 Nordeste 12 Oeste 0 -- -- 47
2019-06-14 10:00:00 17.9 9 Oeste 18 Oeste 0 -- -- 53
2019-06-14 09:00:00 16.2 3 Norte 11 Sudeste 0 -- -- 56
2019-06-14 08:00:00 13.7 2 Nordeste 10 Oeste 0 -- -- 66
2019-06-14 07:00:00 13 2 Norte 14 Este 0 -- -- 63
2019-06-14 06:00:00 12.7 4 Sur 9 Este 0 -- -- 64
2019-06-14 05:00:00 12.6 0 Calma 10 Sur 0 -- -- 64
2019-06-14 04:00:00 12 2 Sur 8 Sudeste 0 -- -- 58
2019-06-14 03:00:00 11.5 3 Oeste 10 Oeste 0 -- -- 69
2019-06-14 02:00:00 11.4 2 Oeste 8 Oeste 0 -- -- 62
2019-06-14 01:00:00 12.1 4 Oeste 8 Sudoeste 0 -- -- 67
2019-06-14 00:00:00 14.2 5 Oeste 9 Oeste 0 -- -- 58
2019-06-13 23:00:00 15.9 4 Oeste 9 Sudeste 0 -- -- 56
2019-06-13 22:00:00 18.9 5 Sudeste 9 Sudeste 0 -- -- 49
2019-06-13 21:00:00 21.5 4 Sudeste 15 Este 0 -- -- 47
2019-06-13 20:00:00 21.7 9 Este 26 Sudeste 0 -- -- 49
2019-06-13 19:00:00 22.6 10 Sudeste 26 Sudeste 0 -- -- 48
2019-06-13 18:00:00 22.3 13 Sudeste 37 Sudeste 0 -- -- 51
2019-06-13 17:00:00 21.8 14 Este 33 Este 0 -- -- 55
2019-06-13 16:00:00 21.7 16 Sudeste 40 Sudeste 0 -- -- 56
2019-06-13 15:00:00 23 15 Sudeste 33 Sudeste 0 -- -- 47
2019-06-13 14:00:00 23.8 16 Sudeste 24 Este 0 -- -- 45
2019-06-13 13:00:00 22.5 12 Sudeste 35 Sudeste 0 -- -- 49
2019-06-13 12:00:00 22.3 17 Sudeste 36 Sudeste 0 -- -- 49
2019-06-13 11:00:00 20.1 15 Sudeste 34 Sudeste 0 -- -- 55
2019-06-13 10:00:00 20.5 19 Este 31 Este 0 -- -- 54
2019-06-13 09:00:00 19.4 6 Este 21 Sudeste 0 -- -- 58
2019-06-13 08:00:00 12.2 4 Oeste 14 Oeste 0 -- -- 65
2019-06-13 07:00:00 9.3 8 Oeste 15 Oeste 0 -- -- 68
2019-06-13 06:00:00 9.4 5 Oeste 9 Sudoeste 0 -- -- 69
2019-06-13 05:00:00 15 2 Sur 17 Este 0 -- -- 63
2019-06-13 04:00:00 15.6 10 Sudeste 21 Sudeste 0 -- -- 62
2019-06-13 03:00:00 15.2 7 Sudeste 22 Este 0 -- -- 55
2019-06-13 02:00:00 14.1 8 Sudeste 15 Sudeste 0 -- -- 37
2019-06-13 01:00:00 12.9 3 Sudeste 13 Sudeste 0 -- -- 43
2019-06-13 00:00:00 13.4 2 Este 13 Sur 0 -- -- 47
2019-06-12 23:00:00 15 3 Sudeste 12 Este 0 -- -- 45
2019-06-12 22:00:00 16.5 6 Sudeste 18 Este 0 -- -- 45
2019-06-12 21:00:00 18.3 7 Sudeste 22 Sudeste 0 -- -- 46
2019-06-12 20:00:00 19.8 10 Sudeste 27 Sudeste 0 -- -- 43
2019-06-12 19:00:00 21 13 Este 27 Este 0 -- -- 42
2019-06-12 18:00:00 20.5 13 Este 27 Sudeste 0 -- -- 46
2019-06-12 17:00:00 21 13 Sudeste 24 Sudeste 0 -- -- 43
2019-06-12 16:00:00 22.3 9 Este 31 Sudeste 0 -- -- 33
2019-06-12 15:00:00 22.3 5 Sudeste 24 Este 0 -- -- 29
2019-06-12 14:00:00 21 5 Sudeste 21 Nordeste 0 -- -- 30
2019-06-12 13:00:00 19.5 4 Nordeste 15 Nordeste 0 -- -- 35
2019-06-12 12:00:00 17.9 6 Nordeste 15 Este 0 -- -- 39
2019-06-12 11:00:00 16.1 4 Norte 12 Oeste 0 -- -- 44
2019-06-12 10:00:00 14.6 5 Nordeste 11 Oeste 0 -- -- 48
2019-06-12 09:00:00 12.5 0 Calma 4 Nordeste 0 -- -- 59
2019-06-12 08:00:00 7.2 0 Calma 6 Oeste 0 -- -- 81
2019-06-12 07:00:00 3.8 0 Calma 4 Oeste 0 -- -- 90
2019-06-12 06:00:00 4.5 0 Calma 6 Oeste 0 -- -- 86
2019-06-12 05:00:00 6 0 Calma 5 Sudoeste 0 -- -- 81
2019-06-12 04:00:00 8.2 0 Calma 16 Oeste 0 -- -- 73
2019-06-12 03:00:00 9.2 7 Oeste 14 Sudoeste 0 -- -- 70
2019-06-12 02:00:00 9.3 5 Sudoeste 12 Sudoeste 0 -- -- 70
2019-06-12 01:00:00 10.8 4 Sudoeste 16 Oeste 0 -- -- 61
2019-06-12 00:00:00 12 4 Oeste 19 Oeste 0 -- -- 58
2019-06-11 23:00:00 12.9 5 Oeste 15 Noroeste 0 -- -- 54
2019-06-11 22:00:00 14.5 9 Noroeste 27 Noroeste 0 -- -- 47
2019-06-11 21:00:00 16.4 14 Oeste 33 Noroeste 0 -- -- 41
2019-06-11 20:00:00 17.6 17 Oeste 43 Noroeste 0 -- -- 39
2019-06-11 19:00:00 16.7 12 Noroeste 28 Oeste 0 -- -- 46
2019-06-11 18:00:00 15.5 6 Oeste 19 Oeste 0 -- -- 52
2019-06-11 17:00:00 14.2 9 Oeste 26 Oeste 0 -- -- 54
2019-06-11 16:00:00 12.5 10 Oeste 30 Oeste 0 -- -- 64
2019-06-11 15:00:00 13.3 13 Oeste 27 Oeste 0 -- -- 62
2019-06-11 14:00:00 12 16 Noroeste 30 Oeste 0 -- -- 68
2019-06-11 13:00:00 12 16 Noroeste 29 Oeste 0 -- -- 67
2019-06-11 12:00:00 11.4 14 Oeste 24 Oeste 0 -- -- 70
2019-06-11 11:00:00 11.6 13 Noroeste 24 Oeste 0 -- -- 67
2019-06-11 10:00:00 11.8 9 Oeste 19 Oeste 0 -- -- 66
2019-06-11 09:00:00 11.7 10 Oeste 18 Noroeste 0 -- -- 63
2019-06-11 08:00:00 11.7 6 Oeste 16 Noroeste 0 -- -- 63
2019-06-11 07:00:00 11.9 9 Oeste 19 Oeste 0 -- -- 61
2019-06-11 06:00:00 12.5 6 Noroeste 15 Oeste 0 -- -- 54
2019-06-11 05:00:00 11.7 0 Calma 4 Sudoeste 0 -- -- 61
2019-06-11 04:00:00 12.4 2 Oeste 9 Sur 0 -- -- 58
2019-06-11 03:00:00 14.2 5 Sur 10 Sudoeste 0 -- -- 46
2019-06-11 02:00:00 15 6 Sudoeste 14 Oeste 0 -- -- 45
2019-06-11 01:00:00 15.4 6 Oeste 15 Oeste 0 -- -- 48
2019-06-11 00:00:00 15.7 7 Oeste 19 Oeste 0 -- -- 50
2019-06-10 23:00:00 16.7 6 Oeste 23 Noroeste 0 -- -- 48
2019-06-10 22:00:00 17.8 7 Oeste 24 Noroeste 0 -- -- 46
2019-06-10 21:00:00 19.5 12 Noroeste 24 Noroeste 0 -- -- 44
2019-06-10 20:00:00 21.4 15 Noroeste 23 Oeste 0 -- -- 40
2019-06-10 19:00:00 22 11 Oeste 26 Oeste 0 -- -- 38
2019-06-10 18:00:00 23.5 13 Oeste 26 Oeste 0 -- -- 35
2019-06-10 17:00:00 22.8 12 Noroeste 27 Oeste 0 -- -- 35
2019-06-10 16:00:00 22.4 18 Noroeste 31 Noroeste 0 -- -- 39
2019-06-10 15:00:00 22 14 Noroeste 30 Oeste 0 -- -- 41
2019-06-10 14:00:00 21.1 15 Noroeste 30 Noroeste 0 -- -- 46
2019-06-10 13:00:00 20.6 12 Noroeste 31 Oeste 0 -- -- 48
2019-06-10 12:00:00 19.3 12 Noroeste 26 Oeste 0 -- -- 51
2019-06-10 11:00:00 18 12 Oeste 26 Oeste 0 -- -- 55
2019-06-10 10:00:00 16.5 11 Noroeste 24 Oeste 0 -- -- 60
2019-06-10 09:00:00 15.2 11 Oeste 23 Oeste 0 -- -- 65
2019-06-10 08:00:00 14.2 8 Oeste 19 Oeste 0 -- -- 69
2019-06-10 07:00:00 13.3 4 Oeste 22 Oeste 0 -- -- 72
2019-06-10 06:00:00 13.7 5 Sudoeste 16 Oeste 0 -- -- 70
2019-06-10 05:00:00 14.3 6 Oeste 22 Oeste 0 -- -- 68
2019-06-10 04:00:00 15.1 9 Oeste 24 Oeste 0 -- -- 66
2019-06-10 03:00:00 15.4 5 Sudoeste 15 Oeste 0 -- -- 65
2019-06-10 02:00:00 16.6 8 Oeste 18 Oeste 0 -- -- 62
2019-06-10 01:00:00 17.8 6 Oeste 32 Oeste 0 -- -- 58
2019-06-10 00:00:00 19.1 18 Oeste 36 Oeste 0 -- -- 57
2019-06-09 23:00:00 17.8 2 Sudoeste 8 Sudoeste 0 -- -- 48
2019-06-09 22:00:00 21.1 0 Calma 6 Sudeste 0 -- -- 39
2019-06-09 21:00:00 25.1 4 Sudeste 13 Este 0 -- -- 29
2019-06-09 20:00:00 26.9 8 Este 18 Nordeste 0 -- -- 27
2019-06-09 19:00:00 27.9 6 Este 18 Este 0 -- -- 26
2019-06-09 18:00:00 27.3 8 Nordeste 18 Este 0 -- -- 27
2019-06-09 17:00:00 27.9 8 Este 19 Nordeste 0 -- -- 26
2019-06-09 16:00:00 27.1 11 Este 23 Este 0 -- -- 27
2019-06-09 15:00:00 25.9 4 Este 14 Este 0 -- -- 29
2019-06-09 14:00:00 25 2 Norte 8 Norte 0 -- -- 32
2019-06-09 13:00:00 24 6 Este 13 Sudeste 0 -- -- 31
2019-06-09 12:00:00 22.8 0 Calma 8 Este 0 -- -- 35
2019-06-09 11:00:00 21 0 Calma 6 Sur 0 -- -- 36
2019-06-09 10:00:00 19.2 2 Oeste 7 Oeste 0 -- -- 42
2019-06-09 09:00:00 17.1 2 Nordeste 8 Oeste 0 -- -- 52
2019-06-09 08:00:00 14.6 4 Oeste 9 Oeste 0 -- -- 60
2019-06-09 07:00:00 14 4 Nordeste 13 Oeste 0 -- -- 56
2019-06-09 06:00:00 14.9 4 Oeste 12 Oeste 0 -- -- 50
2019-06-09 05:00:00 15.5 5 Oeste 14 Oeste 0 -- -- 48
2019-06-09 04:00:00 19.8 9 Sudeste 20 Sudeste 0 -- -- 32
2019-06-09 03:00:00 19.5 8 Sudeste 17 Sur 0 -- -- 33
2019-06-09 02:00:00 18.3 6 Sur 17 Este 0 -- -- 36
2019-06-09 01:00:00 16.8 4 Oeste 10 Sudeste 0 -- -- 40
2019-06-09 00:00:00 17.9 5 Sur 14 Nordeste 0 -- -- 39
2019-06-08 23:00:00 18.5 4 Norte 16 Sudeste 0 -- -- 39
2019-06-08 22:00:00 18.8 5 Sudoeste 22 Sur 0 -- -- 41
2019-06-08 21:00:00 20.1 14 Sur 27 Sur 0 -- -- 38
2019-06-08 20:00:00 21 6 Sudeste 33 Este 0 -- -- 37
2019-06-08 19:00:00 21.5 13 Sudeste 30 Sudeste 0 -- -- 39
2019-06-08 18:00:00 22.3 14 Sudeste 32 Sudeste 0 -- -- 38
2019-06-08 17:00:00 22.7 18 Sudeste 31 Sudeste 0 -- -- 38
2019-06-08 16:00:00 22.9 14 Sudeste 32 Este 0 -- -- 37
2019-06-08 15:00:00 23.6 16 Sudeste 36 Sudeste 0 -- -- 37
2019-06-08 14:00:00 23.6 18 Sudeste 32 Este 0 -- -- 40
2019-06-08 13:00:00 23.6 15 Este 33 Este 0 -- -- 38
2019-06-08 12:00:00 22 10 Este 21 Nordeste 0 -- -- 40
2019-06-08 11:00:00 20.2 6 Nordeste 14 Nordeste 0 -- -- 45
2019-06-08 10:00:00 18.6 4 Nordeste 9 Sudeste 0 -- -- 48
2019-06-08 09:00:00 14.4 0 Calma -- -- 0 -- -- 51
2019-06-08 08:00:00 9.7 0 Calma 3 Oeste 0 -- -- 68
2019-06-08 07:00:00 5.9 0 Calma 4 Oeste 0 -- -- 81
2019-06-08 06:00:00 6.3 0 Calma 8 Sudeste 0 -- -- 80
2019-06-08 05:00:00 6.5 2 Sudeste 10 Oeste 0 -- -- 75
2019-06-08 04:00:00 6.9 0 Calma 6 Oeste 0 -- -- 77
2019-06-08 03:00:00 7.2 4 Sudoeste 7 Oeste 0 -- -- 72
2019-06-08 02:00:00 8.2 0 Calma 4 Oeste 0 -- -- 75
2019-06-08 01:00:00 9.5 0 Calma -- -- 0 -- -- 68
2019-06-08 00:00:00 11.7 0 Calma 3 Sur 0 -- -- 62
2019-06-07 23:00:00 14.3 0 Calma 5 Sudeste 0 -- -- 54
2019-06-07 22:00:00 18.1 6 Sudoeste 15 Noroeste 0 -- -- 34
2019-06-07 21:00:00 21.6 6 Noroeste 25 Oeste 0 -- -- 28
2019-06-07 20:00:00 22.5 11 Noroeste 28 Oeste 0 -- -- 24
2019-06-07 19:00:00 23.3 12 Noroeste 28 Noroeste 0 -- -- 23
2019-06-07 18:00:00 23.8 15 Oeste 31 Oeste 0 -- -- 26
2019-06-07 17:00:00 23 13 Oeste 30 Noroeste 0 -- -- 28
2019-06-07 16:00:00 21.9 12 Noroeste 28 Oeste 0 -- -- 32
2019-06-07 15:00:00 20.8 8 Norte 32 Oeste 0 -- -- 40
2019-06-07 14:00:00 20.2 13 Noroeste 27 Oeste 0 -- -- 45
2019-06-07 13:00:00 19.6 13 Norte 27 Oeste 0 -- -- 46
2019-06-07 12:00:00 18.4 11 Oeste 25 Oeste 0 -- -- 52
2019-06-07 11:00:00 17.2 14 Noroeste 34 Noroeste 0 -- -- 55
2019-06-07 10:00:00 16.9 19 Noroeste 37 Oeste 0 -- -- 57
2019-06-07 09:00:00 19.1 3 Oeste 9 Oeste 0 -- -- 54
2019-06-07 08:00:00 14.4 3 Noroeste 13 Sudeste 0 -- -- 74
2019-06-07 07:00:00 10.7 3 Nordeste 8 Oeste 0 -- -- 85
2019-06-07 06:00:00 12.2 0 Calma 10 Oeste 0 -- -- 77
2019-06-07 05:00:00 13.2 3 Sudoeste 10 Sur 0 -- -- 71
2019-06-07 04:00:00 14.8 5 Sur 12 Sudoeste 0 -- -- 69
2019-06-07 03:00:00 15.7 5 Sudeste 13 Sudeste 0 -- -- 69
2019-06-07 02:00:00 16.5 5 Oeste 16 Oeste 0 -- -- 67
2019-06-07 01:00:00 17.3 7 Noroeste 22 Oeste 0 -- -- 67
2019-06-07 00:00:00 17.9 8 Sudeste 32 Sudeste 0 -- -- 63
2019-06-06 23:00:00 18 12 Sudeste 42 Sudeste 0 -- -- 61
2019-06-06 22:00:00 18.4 10 Sudeste 50 Sudeste 0 -- -- 53
2019-06-06 21:00:00 19.4 14 Sudeste 41 Sudeste 0 -- -- 52
2019-06-06 20:00:00 20.1 13 Sudeste 46 Este 0 -- -- 52
2019-06-06 19:00:00 20.7 22 Sudeste 48 Sudeste 0 -- -- 50
2019-06-06 18:00:00 21.8 23 Sudeste 47 Sudeste 0 -- -- 45
2019-06-06 17:00:00 22.4 20 Sudeste 49 Sudeste 0 -- -- 37
2019-06-06 16:00:00 22.1 24 Sudeste 58 Este 0 -- -- 40
2019-06-06 15:00:00 22.3 21 Sudeste 44 Este 0 -- -- 43
2019-06-06 14:00:00 22.8 14 Sur 48 Sudeste 0 -- -- 41
2019-06-06 13:00:00 22.1 22 Sudeste 42 Sudeste 0 -- -- 44
2019-06-06 12:00:00 22.4 9 Sur 28 Sudeste 0 -- -- 40
2019-06-06 11:00:00 19.9 5 Este 11 Sudeste 0 -- -- 48
2019-06-06 10:00:00 17 4 Norte 12 Nordeste 0 -- -- 57
2019-06-06 09:00:00 14.3 3 Este 6 Este 0 -- -- 64
2019-06-06 08:00:00 8.8 0 Calma 4 Oeste 0 -- -- 86
2019-06-06 07:00:00 6.3 0 Calma 4 Oeste 0 -- -- 91
2019-06-06 06:00:00 6.8 0 Calma 6 Oeste 0 -- -- 88
2019-06-06 05:00:00 7.7 0 Calma 6 Oeste 0 -- -- 86
2019-06-06 04:00:00 8.6 2 Oeste 4 Oeste 0 -- -- 85
2019-06-06 03:00:00 9.3 3 Oeste 5 Oeste 0 -- -- 81
2019-06-06 02:00:00 10.4 2 Oeste 8 Sudoeste 0 -- -- 76
2019-06-06 01:00:00 12 3 Sur 10 Sudoeste 0 -- -- 68
2019-06-06 00:00:00 12.6 4 Oeste 14 Sudoeste 0 -- -- 68
2019-06-05 23:00:00 14.4 2 Norte 14 Noroeste 0 -- -- 58
2019-06-05 22:00:00 15.9 8 Oeste 28 Oeste 0 -- -- 51
2019-06-05 21:00:00 17.5 16 Oeste 35 Oeste 0 -- -- 47
2019-06-05 20:00:00 17.8 17 Noroeste 40 Noroeste 0 -- -- 48
2019-06-05 19:00:00 18.7 21 Noroeste 45 Noroeste 0 -- -- 42
2019-06-05 18:00:00 18.7 18 Oeste 41 Oeste 0 -- -- 41
2019-06-05 17:00:00 18.3 21 Noroeste 48 Noroeste 0 -- -- 46
2019-06-05 16:00:00 17.5 31 Noroeste 47 Oeste 0 -- -- 47
2019-06-05 15:00:00 16.7 22 Noroeste 48 Oeste 0 -- -- 54
2019-06-05 14:00:00 15.5 24 Noroeste 40 Oeste 0 -- -- 64
2019-06-05 13:00:00 16.1 17 Noroeste 35 Oeste 0 -- -- 66
2019-06-05 12:00:00 17.7 16 Noroeste 28 Oeste 0 -- -- 61
2019-06-05 11:00:00 19.3 5 Noroeste 12 Oeste 0 -- -- 58
2019-06-05 10:00:00 16.4 8 Noroeste 15 Noroeste 0 -- -- 67
2019-06-05 09:00:00 15.4 5 Noroeste 10 Oeste 0 -- -- 70
2019-06-05 08:00:00 14.8 6 Noroeste 9 Oeste 0 -- -- 78
2019-06-05 07:00:00 13.8 0 Calma 8 Oeste 0 -- -- 84
2019-06-05 06:00:00 14.2 2 Oeste 8 Oeste 0 -- -- 79
2019-06-05 05:00:00 15 4 Oeste 5 Oeste 0 -- -- 78
2019-06-05 04:00:00 16.5 3 Oeste 8 Sudoeste 0 -- -- 72
2019-06-05 03:00:00 18.5 0 Calma 19 Oeste 0 -- -- 65
2019-06-05 02:00:00 20.3 14 Noroeste 29 Oeste 0 -- -- 61
2019-06-05 01:00:00 24.9 6 Noroeste 33 Sudoeste 0 -- -- 19
2019-06-05 00:00:00 24.8 6 Norte 26 Sur 0 -- -- 18
2019-06-04 23:00:00 24.7 5 Oeste 23 Sur 0 -- -- 21
2019-06-04 22:00:00 24.8 6 Noroeste 33 Sudeste 0 -- -- 28
2019-06-04 21:00:00 25.1 6 Oeste 22 Sudeste 0 -- -- 33
2019-06-04 20:00:00 26.6 7 Noroeste 31 Sudeste 0 -- -- 36
2019-06-04 19:00:00 28.7 10 Sudeste 40 Sur 0 -- -- 36
2019-06-04 18:00:00 30.5 13 Sudeste 53 Sudeste 0 -- -- 29
2019-06-04 17:00:00 32.4 15 Sudeste 35 Sudeste 0 -- -- 25
2019-06-04 16:00:00 32.9 14 Sudeste 41 Sudeste 0 -- -- 26
2019-06-04 15:00:00 32.5 8 Sudeste 27 Nordeste 0 -- -- 25
2019-06-04 14:00:00 29.9 14 Norte 26 Norte 0 -- -- 39
2019-06-04 13:00:00 29.2 12 Nordeste 20 Nordeste 0 -- -- 36
2019-06-04 12:00:00 28.1 7 Nordeste 15 Este 0 -- -- 36
2019-06-04 11:00:00 26.3 7 Este 13 Este 0 -- -- 36
2019-06-04 10:00:00 23.8 4 Oeste 10 Noroeste 0 -- -- 44
2019-06-04 09:00:00 20.2 3 Oeste 5 Oeste 0 -- -- 49
2019-06-04 08:00:00 16.8 2 Nordeste 8 Oeste 0 -- -- 62
2019-06-04 07:00:00 15 2 Sur 10 Oeste 0 -- -- 59
2019-06-04 06:00:00 15.4 0 Calma 5 Oeste 0 -- -- 63
2019-06-04 05:00:00 17.7 0 Calma 6 Sur 0 -- -- 49
2019-06-04 04:00:00 19.4 0 Calma 13 Sur 0 -- -- 43
2019-06-04 03:00:00 23.4 6 Sudeste 21 Sudeste 0 -- -- 32
2019-06-04 02:00:00 22.8 4 Oeste 21 Sudeste 0 -- -- 32
2019-06-04 01:00:00 24.2 8 Sudeste 19 Sudeste 0 -- -- 27
2019-06-04 00:00:00 21.3 6 Sudeste 10 Norte 0 -- -- 39
2019-06-03 23:00:00 22 5 Sur 14 Sur 0 -- -- 41
2019-06-03 22:00:00 24.3 7 Este 17 Sudeste 0 -- -- 34
2019-06-03 21:00:00 26.1 7 Sudeste 23 Este 0 -- -- 34
2019-06-03 20:00:00 26.8 14 Sudeste 27 Sudeste 0 -- -- 34
2019-06-03 19:00:00 30 11 Sudeste 26 Sudeste 0 -- -- 33
2019-06-03 18:00:00 29.1 12 Sudeste 35 Sudeste 0 -- -- 32
2019-06-03 17:00:00 28.3 12 Sur 27 Este 0 -- -- 41
2019-06-03 16:00:00 29.9 15 Sudeste 32 Sudeste 0 -- -- 36
2019-06-03 15:00:00 31.1 17 Sudeste 31 Este 0 -- -- 33
2019-06-03 14:00:00 30.7 7 Nordeste 15 Nordeste 0 -- -- 29
2019-06-03 13:00:00 30.7 6 Nordeste 18 Norte 0 -- -- 31
2019-06-03 12:00:00 30.6 8 Nordeste 20 Este 0 -- -- 29
2019-06-03 11:00:00 29.8 10 Sudeste 19 Sudeste 0 -- -- 23
2019-06-03 10:00:00 27.7 9 Este 15 Sudeste 0 -- -- 25
2019-06-03 09:00:00 20.9 0 Calma 4 Sudeste 0 -- -- 51
2019-06-03 08:00:00 14.5 0 Calma 5 Nordeste 0 -- -- 70
2019-06-03 07:00:00 12 0 Calma 4 Oeste 0 -- -- 75
2019-06-03 06:00:00 12.6 0 Calma 8 Oeste 0 -- -- 68
2019-06-03 05:00:00 14 3 Sudeste 8 Sudeste 0 -- -- 62
2019-06-03 04:00:00 14.4 5 Nordeste 14 Oeste 0 -- -- 59
2019-06-03 03:00:00 14.4 0 Calma 6 Sudoeste 0 -- -- 61
2019-06-03 02:00:00 15.1 2 Oeste 6 Sudoeste 0 -- -- 59
2019-06-03 01:00:00 16.5 0 Calma 10 Sudoeste 0 -- -- 57
2019-06-03 00:00:00 18.1 3 Oeste 15 Sur 0 -- -- 50
2019-06-02 23:00:00 19.8 5 Sur 9 Sudoeste 0 -- -- 45
2019-06-02 22:00:00 22.3 5 Sur 10 Sudoeste 0 -- -- 37
2019-06-02 21:00:00 26.1 6 Nordeste 15 Este 0 -- -- 31
2019-06-02 20:00:00 28.5 6 Sudeste 17 Sudeste 0 -- -- 29
2019-06-02 19:00:00 29.6 9 Este 23 Sudeste 0 -- -- 28
2019-06-02 18:00:00 30.3 13 Sudeste 28 Sudeste 0 -- -- 29
2019-06-02 17:00:00 31 16 Sudeste 27 Sudeste 0 -- -- 30
2019-06-02 16:00:00 31.6 11 Sudeste 21 Sudeste 0 -- -- 30
2019-06-02 15:00:00 31.3 9 Norte 25 Este 0 -- -- 31
2019-06-02 14:00:00 30.5 5 Noroeste 17 Norte 0 -- -- 31
2019-06-02 13:00:00 29 8 Nordeste 16 Este 0 -- -- 31
2019-06-02 12:00:00 27.9 6 Este 13 Este 0 -- -- 33
2019-06-02 11:00:00 25.9 3 Nordeste 8 Nordeste 0 -- -- 37
2019-06-02 10:00:00 23.1 0 Calma -- -- 0 -- -- 42
2019-06-02 09:00:00 18.4 0 Calma -- -- 0 -- -- 55
2019-06-02 08:00:00 13.3 0 Calma -- -- 0 -- -- 77
2019-06-02 07:00:00 9.6 0 Calma -- -- 0 -- -- 87
2019-06-02 06:00:00 9.9 0 Calma 4 Sudeste 0 -- -- 85
2019-06-02 05:00:00 10.3 0 Calma 6 Oeste 0 -- -- 83
2019-06-02 04:00:00 11 0 Calma 5 Oeste 0 -- -- 83
2019-06-02 03:00:00 11.7 3 Oeste 6 Oeste 0 -- -- 80
2019-06-02 02:00:00 12.7 3 Oeste 8 Sudoeste 0 -- -- 76
2019-06-02 01:00:00 13.8 3 Oeste 8 Sudoeste 0 -- -- 71
2019-06-02 00:00:00 15.1 4 Oeste 8 Sudoeste 0 -- -- 67
2019-06-01 23:00:00 17.3 2 Sudoeste 8 Sudoeste 0 -- -- 58
2019-06-01 22:00:00 20.8 3 Sudoeste 10 Sudoeste 0 -- -- 46
2019-06-01 21:00:00 24.9 6 Sudeste 17 Este 0 -- -- 36
2019-06-01 20:00:00 26.2 11 Sudeste 25 Este 0 -- -- 34
2019-06-01 19:00:00 27.7 9 Sudeste 21 Este 0 -- -- 34
2019-06-01 18:00:00 28.3 14 Este 26 Sudeste 0 -- -- 33
2019-06-01 17:00:00 29.2 11 Sudeste 25 Sudeste 0 -- -- 34
2019-06-01 16:00:00 29.6 10 Este 20 Este 0 -- -- 35
2019-06-01 15:00:00 28.8 9 Nordeste 22 Este 0 -- -- 36
2019-06-01 14:00:00 28.3 7 Norte 19 Nordeste 0 -- -- 33
2019-06-01 13:00:00 27.9 8 Sudeste 16 Este 0 -- -- 32
2019-06-01 12:00:00 26.4 5 Este 14 Este 0 -- -- 33
2019-06-01 11:00:00 24.8 5 Nordeste 15 Este 0 -- -- 36
2019-06-01 10:00:00 22 2 Oeste 7 Oeste 0 -- -- 45
2019-06-01 09:00:00 18.2 0 Calma 3 Este 0 -- -- 57
2019-06-01 08:00:00 13.2 0 Calma 4 Oeste 0 -- -- 80
2019-06-01 07:00:00 9.8 0 Calma 6 Este 0 -- -- 89
2019-06-01 06:00:00 10 0 Calma 0 Calma 0 -- -- 88
2019-06-01 05:00:00 10.3 0 Calma 4 Sur 0 -- -- 87
2019-06-01 04:00:00 11 0 Calma 6 Oeste 0 -- -- 86
2019-06-01 03:00:00 11.7 0 Calma 5 Este 0 -- -- 84
2019-06-01 02:00:00 12.4 0 Calma 5 Sudoeste 0 -- -- 81
2019-06-01 01:00:00 13.5 0 Calma 4 Sudoeste 0 -- -- 79
2019-06-01 00:00:00 14.8 3 Oeste 6 Sudoeste 0 -- -- 73
2019-05-31 23:00:00 17 4 Sudoeste 9 Sudoeste 0 -- -- 66
2019-05-31 22:00:00 20.1 2 Sur 12 Sudeste 0 -- -- 54
2019-05-31 21:00:00 23.5 7 Sudeste 18 Este 0 -- -- 45
2019-05-31 20:00:00 24.8 12 Sudeste 22 Este 0 -- -- 42
2019-05-31 19:00:00 26.4 10 Sudeste 24 Sudeste 0 -- -- 39
2019-05-31 18:00:00 27.1 11 Sudeste 24 Sudeste 0 -- -- 39
2019-05-31 17:00:00 27.5 13 Sudeste 23 Sudeste 0 -- -- 38
2019-05-31 16:00:00 28.2 12 Nordeste 23 Este 0 -- -- 35
2019-05-31 15:00:00 27.4 6 Nordeste 15 Oeste 0 -- -- 32
2019-05-31 14:00:00 26.9 4 Sudeste 17 Nordeste 0 -- -- 34
2019-05-31 13:00:00 25.6 6 Norte 14 Norte 0 -- -- 35
2019-05-31 12:00:00 24.3 6 Oeste 15 Noroeste 0 -- -- 41
2019-05-31 11:00:00 22.8 8 Noroeste 13 Norte 0 -- -- 46
2019-05-31 10:00:00 20.9 2 Norte 6 Noroeste 0 -- -- 49
2019-05-31 09:00:00 17.1 0 Calma 0 Calma 0 -- -- 64
2019-05-31 08:00:00 11.7 0 Calma -- -- 0 -- -- 84
2019-05-31 07:00:00 8.6 0 Calma -- -- 0 -- -- 91
2019-05-31 06:00:00 9.1 0 Calma -- -- 0 -- -- 88
2019-05-31 05:00:00 9.8 0 Calma -- -- 0 -- -- 87
2019-05-31 04:00:00 9.8 0 Calma -- -- 0 -- -- 88
2019-05-31 03:00:00 10.4 0 Calma -- -- 0 -- -- 87
2019-05-31 02:00:00 11.3 0 Calma 4 Oeste 0 -- -- 84
2019-05-31 01:00:00 12.6 0 Calma 5 Oeste 0 -- -- 79
2019-05-31 00:00:00 14.2 0 Calma 4 Oeste 0 -- -- 72
2019-05-30 23:00:00 16.7 0 Calma 5 Sudeste 0 -- -- 60
2019-05-30 22:00:00 20.1 3 Sudeste 10 Sudoeste 0 -- -- 52
2019-05-30 21:00:00 25.1 3 Sur 11 Oeste 0 -- -- 40
2019-05-30 20:00:00 27 6 Oeste 17 Oeste 0 -- -- 28
2019-05-30 19:00:00 27.7 6 Oeste 20 Noroeste 0 -- -- 27
2019-05-30 18:00:00 27.2 8 Oeste 17 Noroeste 0 -- -- 30
2019-05-30 17:00:00 26.3 8 Norte 18 Oeste 0 -- -- 31
2019-05-30 16:00:00 25.7 5 Noroeste 17 Noroeste 0 -- -- 31
2019-05-30 15:00:00 24.9 6 Sudoeste 17 Oeste 0 -- -- 35
2019-05-30 14:00:00 23.1 7 Noroeste 20 Oeste 0 -- -- 39
2019-05-30 13:00:00 22.2 3 Noroeste 19 Noroeste 0 -- -- 40
2019-05-30 12:00:00 20.1 5 Norte 20 Oeste 0 -- -- 45
2019-05-30 11:00:00 18.4 8 Noroeste 19 Oeste 0 -- -- 47
2019-05-30 10:00:00 17.2 6 Sudoeste 17 Oeste 0 -- -- 53
2019-05-30 09:00:00 14.4 2 Nordeste 5 Nordeste 0 -- -- 67
2019-05-30 08:00:00 9.1 0 Calma 3 Oeste 0 -- -- 88
2019-05-30 07:00:00 6 0 Calma 4 Oeste 0 -- -- 92
2019-05-30 06:00:00 6.4 0 Calma 5 Noroeste 0 -- -- 91
2019-05-30 05:00:00 7.1 0 Calma 4 Noroeste 0 -- -- 89
2019-05-30 04:00:00 8 0 Calma 4 Sudeste 0 -- -- 86
2019-05-30 03:00:00 9.2 0 Calma 6 Oeste 0 -- -- 82
2019-05-30 02:00:00 11.1 0 Calma 10 Sudoeste 0 -- -- 73
2019-05-30 01:00:00 12.2 5 Sudoeste 12 Oeste 0 -- -- 68
2019-05-30 00:00:00 12.8 6 Sudoeste 11 Sudoeste 0 -- -- 65
2019-05-29 23:00:00 14.2 4 Sudoeste 13 Oeste 0 -- -- 63
2019-05-29 22:00:00 16.4 5 Oeste 23 Oeste 0 -- -- 52
2019-05-29 21:00:00 18.4 10 Oeste 29 Noroeste 0 -- -- 44
2019-05-29 20:00:00 19.7 12 Oeste 32 Noroeste 0 -- -- 40
2019-05-29 19:00:00 20.1 21 Noroeste 37 Noroeste 0 -- -- 37
2019-05-29 18:00:00 20.4 19 Noroeste 34 Oeste 0 -- -- 36
2019-05-29 17:00:00 19.9 18 Oeste 35 Oeste 0 -- -- 38
2019-05-29 16:00:00 19.3 22 Noroeste 36 Noroeste 0 -- -- 39
2019-05-29 15:00:00 18.7 18 Oeste 33 Oeste 0 -- -- 45
2019-05-29 14:00:00 17.5 15 Oeste 36 Oeste 0 -- -- 48
2019-05-29 13:00:00 16.1 18 Noroeste 36 Oeste 0 -- -- 51
2019-05-29 12:00:00 15.8 18 Oeste 32 Noroeste 0 -- -- 53
2019-05-29 11:00:00 14.4 12 Oeste 33 Noroeste 0 -- -- 59
2019-05-29 10:00:00 13.6 18 Noroeste 36 Oeste 0 -- -- 61
2019-05-29 09:00:00 12 17 Oeste 37 Noroeste 0 -- -- 65
2019-05-29 08:00:00 11.6 14 Oeste 29 Oeste 0 -- -- 65
2019-05-29 07:00:00 10.1 8 Oeste 25 Oeste 0 -- -- 71
2019-05-29 06:00:00 10 10 Oeste 23 Oeste 0 -- -- 70
2019-05-29 05:00:00 10.3 8 Noroeste 29 Noroeste 0 -- -- 69
2019-05-29 04:00:00 10.9 15 Oeste 37 Oeste 0 -- -- 65
2019-05-29 03:00:00 11.3 17 Oeste 42 Oeste 0 -- -- 63
2019-05-29 02:00:00 11.5 10 Oeste 35 Oeste 0 -- -- 63
2019-05-29 01:00:00 12.1 17 Oeste 36 Oeste 0 -- -- 61
2019-05-29 00:00:00 12.7 19 Oeste 49 Noroeste 0 -- -- 56
2019-05-28 23:00:00 13.3 17 Oeste 58 Oeste 0 -- -- 52
2019-05-28 22:00:00 14 24 Oeste 58 Oeste 0 -- -- 54
2019-05-28 21:00:00 15.4 24 Oeste 56 Oeste 0 -- -- 54
2019-05-28 20:00:00 17.1 22 Oeste 56 Oeste 0 -- -- 49
2019-05-28 19:00:00 17.8 28 Noroeste 59 Noroeste 0 -- -- 46
2019-05-28 18:00:00 19.1 28 Oeste 53 Noroeste 0 -- -- 40
2019-05-28 17:00:00 18.9 23 Noroeste 49 Oeste 0 -- -- 43
2019-05-28 16:00:00 18.8 24 Noroeste 44 Oeste 0 -- -- 45
2019-05-28 15:00:00 19 25 Noroeste 47 Noroeste 0 -- -- 43
2019-05-28 14:00:00 18.3 24 Noroeste 47 Noroeste 0 -- -- 44
2019-05-28 13:00:00 17 27 Noroeste 46 Sudoeste 0 -- -- 47
2019-05-28 12:00:00 15.6 16 Noroeste 40 Noroeste 0 -- -- 50
2019-05-28 11:00:00 14.1 14 Noroeste 46 Oeste 0 -- -- 56
2019-05-28 10:00:00 13.7 16 Oeste 46 Oeste 0 -- -- 55
2019-05-28 09:00:00 12.6 13 Oeste 33 Oeste 0 -- -- 60
2019-05-28 08:00:00 11.5 14 Oeste 30 Oeste 0 -- -- 64
2019-05-28 07:00:00 11 13 Oeste 30 Oeste 0 -- -- 64
2019-05-28 06:00:00 11.3 10 Oeste 31 Sudoeste 0 -- -- 66
2019-05-28 05:00:00 11.8 16 Oeste 33 Oeste 0 -- -- 65
2019-05-28 04:00:00 12.3 9 Oeste 24 Oeste 0 -- -- 64
2019-05-28 03:00:00 13.1 7 Oeste 27 Oeste 0 -- -- 62
2019-05-28 02:00:00 14 16 Oeste 35 Oeste 0 -- -- 64
2019-05-28 01:00:00 15 12 Oeste 40 Noroeste 0 -- -- 63
2019-05-28 00:00:00 16 15 Oeste 48 Oeste 0 -- -- 66
2019-05-27 23:00:00 17.3 18 Oeste 46 Oeste 0 -- -- 62
2019-05-27 22:00:00 18.2 15 Oeste 38 Noroeste 0 -- -- 60
2019-05-27 21:00:00 19.7 19 Oeste 39 Noroeste 0 -- -- 55
2019-05-27 20:00:00 21.6 23 Oeste 42 Oeste 0 -- -- 50
2019-05-27 19:00:00 22.9 24 Noroeste 39 Noroeste 0 -- -- 48
2019-05-27 18:00:00 23.2 18 Oeste 36 Noroeste 0 -- -- 47
2019-05-27 17:00:00 23 15 Noroeste 29 Noroeste 0 -- -- 47
2019-05-27 16:00:00 21.6 17 Noroeste 31 Noroeste 0 -- -- 49
2019-05-27 15:00:00 21.2 16 Noroeste 32 Oeste 0 -- -- 49
2019-05-27 14:00:00 19.9 16 Noroeste 30 Noroeste 0 -- -- 52
2019-05-27 13:00:00 18.7 13 Noroeste 31 Noroeste 0 -- -- 57
2019-05-27 12:00:00 17.2 11 Oeste 24 Noroeste 0 -- -- 61
2019-05-27 11:00:00 14.5 11 Oeste 23 Oeste 0 -- -- 68
2019-05-27 10:00:00 13.6 7 Noroeste 25 Oeste 0 -- -- 74
2019-05-27 09:00:00 12.9 12 Oeste 25 Noroeste 0 -- -- 74
2019-05-27 08:00:00 12.6 9 Oeste 29 Oeste 0 -- -- 76
2019-05-27 07:00:00 12.8 9 Oeste 22 Sur 0 -- -- 75
2019-05-27 06:00:00 13.1 10 Oeste 23 Noroeste 0 -- -- 74
2019-05-27 05:00:00 13.4 8 Oeste 18 Oeste 0 -- -- 73
2019-05-27 04:00:00 13.7 7 Oeste 20 Sudoeste 0 -- -- 72
2019-05-27 03:00:00 13.9 7 Oeste 23 Sudoeste 0 -- -- 71
2019-05-27 02:00:00 14 4 Oeste 22 Oeste 0 -- -- 71
2019-05-27 01:00:00 14 5 Oeste 17 Oeste 0 -- -- 71
2019-05-27 00:00:00 14.4 6 Sudoeste 16 Oeste 0 -- -- 69
2019-05-26 23:00:00 15.4 6 Oeste 25 Oeste 0 -- -- 64
2019-05-26 22:00:00 16.6 9 Oeste 22 Oeste 0 -- -- 60
2019-05-26 21:00:00 18.7 9 Oeste 32 Noroeste 0 -- -- 54
2019-05-26 20:00:00 20 16 Oeste 34 Oeste 0 -- -- 49
2019-05-26 19:00:00 20.9 17 Oeste 33 Oeste 0 -- -- 45
2019-05-26 18:00:00 20.7 18 Noroeste 30 Noroeste 0 -- -- 47
2019-05-26 17:00:00 20.5 17 Noroeste 35 Oeste 0 -- -- 48
2019-05-26 16:00:00 20.3 16 Noroeste 37 Oeste 0 -- -- 49
2019-05-26 15:00:00 19.3 15 Noroeste 29 Noroeste 0 -- -- 52
2019-05-26 14:00:00 18.1 15 Noroeste 32 Noroeste 0 -- -- 55
2019-05-26 13:00:00 17.5 13 Oeste 25 Oeste 0 -- -- 56
2019-05-26 12:00:00 16.4 9 Noroeste 28 Oeste 0 -- -- 59
2019-05-26 11:00:00 14.6 12 Oeste 24 Oeste 0 -- -- 64
2019-05-26 10:00:00 13.4 10 Oeste 27 Oeste 0 -- -- 66
2019-05-26 09:00:00 12.9 14 Oeste 32 Oeste 0 -- -- 67
2019-05-26 08:00:00 11.8 10 Oeste 27 Oeste 0 -- -- 70
2019-05-26 07:00:00 11.2 8 Oeste 21 Oeste 0 -- -- 72
2019-05-26 06:00:00 11.7 8 Oeste 26 Oeste 0 -- -- 73
2019-05-26 05:00:00 12 10 Oeste 25 Oeste 0 -- -- 72
2019-05-26 04:00:00 12.3 11 Oeste 24 Oeste 0 -- -- 72
2019-05-26 03:00:00 12.6 7 Oeste 21 Oeste 0 -- -- 72
2019-05-26 02:00:00 12.9 7 Oeste 16 Sudoeste 0 -- -- 73
2019-05-26 01:00:00 13.1 10 Oeste 27 Oeste 0 -- -- 71
2019-05-26 00:00:00 14 10 Oeste 24 Oeste 0 -- -- 70
2019-05-25 23:00:00 14.8 11 Oeste 31 Oeste 0 -- -- 69
2019-05-25 22:00:00 15.8 10 Oeste 32 Noroeste 0 -- -- 66
2019-05-25 21:00:00 17.5 14 Oeste 37 Oeste 0 -- -- 60
2019-05-25 20:00:00 18.7 18 Oeste 35 Noroeste 0 -- -- 54
2019-05-25 19:00:00 19.5 19 Noroeste 33 Oeste 0 -- -- 52
2019-05-25 18:00:00 20.5 15 Oeste 37 Oeste 0 -- -- 53
2019-05-25 17:00:00 19.1 17 Noroeste 32 Noroeste 0 -- -- 55
2019-05-25 16:00:00 19.7 14 Noroeste 31 Oeste 0 -- -- 54
2019-05-25 15:00:00 18.9 19 Noroeste 33 Oeste 0 -- -- 58
2019-05-25 14:00:00 17.8 14 Noroeste 29 Oeste 0 -- -- 62
2019-05-25 13:00:00 16.6 12 Oeste 27 Oeste 0 -- -- 66
2019-05-25 12:00:00 14.9 12 Noroeste 29 Noroeste 0 -- -- 72
2019-05-25 11:00:00 13.6 10 Oeste 26 Oeste 0 -- -- 78
2019-05-25 10:00:00 12.5 15 Oeste 27 Oeste 0 -- -- 81
2019-05-25 09:00:00 12.1 10 Oeste 31 Oeste 0 -- -- 82
2019-05-25 08:00:00 11.6 8 Oeste 24 Oeste 0 -- -- 84
2019-05-25 07:00:00 11.2 8 Oeste 18 Oeste 0 -- -- 86
2019-05-25 06:00:00 11.1 8 Oeste 18 Sudoeste 0.2 -- -- 88
2019-05-25 05:00:00 11.2 7 Oeste 24 Oeste 0 -- -- 88
2019-05-25 04:00:00 11.4 12 Oeste 24 Oeste 0 -- -- 88
2019-05-25 03:00:00 11.6 11 Oeste 24 Noroeste 0 -- -- 88
2019-05-25 02:00:00 11.6 10 Oeste 23 Oeste 0 -- -- 92
2019-05-25 01:00:00 12 14 Oeste 27 Oeste 0 -- -- 90
2019-05-25 00:00:00 12.2 11 Oeste 26 Noroeste 0 -- -- 90
2019-05-24 23:00:00 12.6 10 Oeste 26 Oeste 0.2 -- -- 90
2019-05-24 22:00:00 12.8 9 Oeste 19 Oeste 0.4 -- -- 92
2019-05-24 21:00:00 13.1 8 Oeste 26 Oeste 0 -- -- 91
2019-05-24 20:00:00 13.1 11 Oeste 21 Noroeste 0.6 -- -- 93
2019-05-24 19:00:00 13.8 9 Noroeste 24 Noroeste 0.6 -- -- 92
2019-05-24 18:00:00 15.1 11 Oeste 29 Oeste 0 -- -- 82
2019-05-24 17:00:00 15.1 8 Oeste 21 Oeste 0 -- -- 83
2019-05-24 16:00:00 14.3 10 Oeste 22 Noroeste 0 -- -- 89
2019-05-24 15:00:00 13.5 0 Calma 12 Oeste 0.8 -- -- 95
2019-05-24 14:00:00 12.6 9 Oeste 28 Oeste 2 -- -- 95
2019-05-24 13:00:00 12.9 8 Oeste 14 Sudoeste 3.4 -- -- 95
2019-05-24 12:00:00 12.6 3 Oeste 15 Sudoeste 2.6 -- -- 95
2019-05-24 11:00:00 12.3 5 Oeste 26 Oeste 1.2 -- -- 95
2019-05-24 10:00:00 12.5 0 Calma 12 Oeste 4.4 -- -- 95
2019-05-24 09:00:00 12.5 6 Oeste 16 Oeste 1 -- -- 95
2019-05-24 08:00:00 13.4 5 Oeste 10 Oeste 0.2 -- -- 92
2019-05-24 07:00:00 13.4 3 Sudoeste 13 Noroeste 0.4 -- -- 93
2019-05-24 06:00:00 13.6 8 Oeste 23 Noroeste 0 -- -- 92
2019-05-24 05:00:00 14.8 5 Noroeste 12 Este 2.2 -- -- 94
2019-05-24 04:00:00 15.3 6 Oeste 27 Oeste 0.4 -- -- 89
2019-05-24 03:00:00 15.7 5 Este 10 Sudeste 0 -- -- 87
2019-05-24 02:00:00 16.1 3 Sudoeste 11 Sur 0 -- -- 83
2019-05-24 01:00:00 17.9 8 Sudeste 18 Oeste 0.6 -- -- 79
2019-05-24 00:00:00 20.1 5 Sudoeste 23 Noroeste 0 -- -- 56
2019-05-23 23:00:00 19.6 5 Oeste 13 Sur 0 -- -- 55
2019-05-23 22:00:00 19.9 0 Calma 10 Sudoeste 0 -- -- 56
2019-05-23 21:00:00 23.3 4 Sur 10 Sudeste 0 -- -- 48
2019-05-23 20:00:00 24.6 6 Sudeste 18 Este 0 -- -- 44
2019-05-23 19:00:00 25.2 7 Este 19 Sudeste 0 -- -- 41
2019-05-23 18:00:00 26.6 12 Sudeste 26 Sudeste 0 -- -- 42
2019-05-23 17:00:00 27.1 8 Nordeste 27 Nordeste 0 -- -- 36
2019-05-23 16:00:00 27.1 5 Sudoeste 23 Este 0 -- -- 28
2019-05-23 15:00:00 27.3 9 Noroeste 16 Nordeste 0 -- -- 29
2019-05-23 14:00:00 27.3 10 Noroeste 17 Oeste 0 -- -- 32
2019-05-23 13:00:00 26.6 7 Este 16 Nordeste 0 -- -- 36
2019-05-23 12:00:00 25.1 8 Nordeste 17 Nordeste 0 -- -- 40
2019-05-23 11:00:00 23.8 6 Este 13 Este 0 -- -- 44
2019-05-23 10:00:00 21 0 Calma -- -- 0 -- -- 57
2019-05-23 09:00:00 16 0 Calma -- -- 0 -- -- 70
2019-05-23 08:00:00 11 0 Calma -- -- 0 -- -- 86
2019-05-23 07:00:00 8.4 0 Calma -- -- 0 -- -- 91
2019-05-23 06:00:00 8.5 0 Calma -- -- 0 -- -- 90
2019-05-23 05:00:00 9 0 Calma 0 Calma 0 -- -- 89
2019-05-23 04:00:00 9.4 0 Calma 5 Oeste 0 -- -- 87
2019-05-23 03:00:00 10 0 Calma 4 Oeste 0 -- -- 86
2019-05-23 02:00:00 10.9 3 Oeste 4 Oeste 0 -- -- 82
2019-05-23 01:00:00 12.1 2 Oeste 4 Oeste 0 -- -- 78
2019-05-23 00:00:00 13.5 0 Calma 4 Oeste 0 -- -- 74
2019-05-22 23:00:00 15.8 0 Calma 6 Sur 0 -- -- 63
2019-05-22 22:00:00 18.7 2 Sur 6 Sudoeste 0 -- -- 53
2019-05-22 21:00:00 22.9 4 Sur 12 Sudeste 0 -- -- 43
2019-05-22 20:00:00 24.7 9 Nordeste 19 Nordeste 0 -- -- 39
2019-05-22 19:00:00 25.2 9 Norte 21 Nordeste 0 -- -- 28
2019-05-22 18:00:00 25.1 9 Norte 26 Noroeste 0 -- -- 30
2019-05-22 17:00:00 25.1 10 Noroeste 26 Oeste 0 -- -- 31
2019-05-22 16:00:00 24.5 14 Noroeste 32 Noroeste 0 -- -- 32
2019-05-22 15:00:00 24.3 10 Noroeste 24 Noroeste 0 -- -- 32
2019-05-22 14:00:00 23.8 7 Oeste 18 Oeste 0 -- -- 32
2019-05-22 13:00:00 22.5 5 Norte 17 Sudeste 0 -- -- 34
2019-05-22 12:00:00 21.1 4 Sur 15 Oeste 0 -- -- 36
2019-05-22 11:00:00 19.4 8 Este 17 Nordeste 0 -- -- 38
2019-05-22 10:00:00 16.6 0 Calma 6 Este 0 -- -- 46
2019-05-22 09:00:00 11.3 0 Calma 5 Oeste 0 -- -- 71
2019-05-22 08:00:00 6.6 0 Calma -- -- 0 -- -- 92
2019-05-22 07:00:00 5.9 0 Calma -- -- 0 -- -- 89
2019-05-22 06:00:00 6.5 0 Calma -- -- 0 -- -- 89
2019-05-22 05:00:00 6.9 0 Calma 4 Noroeste 0 -- -- 88
2019-05-22 04:00:00 7.6 0 Calma 4 Oeste 0 -- -- 86
2019-05-22 03:00:00 8.6 0 Calma 6 Noroeste 0 -- -- 83
2019-05-22 02:00:00 9.9 0 Calma 2 Sudoeste 0 -- -- 76
2019-05-22 01:00:00 10.6 0 Calma 6 Oeste 0 -- -- 76
2019-05-22 00:00:00 11.7 0 Calma 3 Este 0 -- -- 74
2019-05-21 23:00:00 13.5 0 Calma 5 Sudoeste 0 -- -- 61
2019-05-21 22:00:00 16.6 3 Sudoeste 8 Sudoeste 0 -- -- 53
2019-05-21 21:00:00 20.7 3 Sudoeste 17 Sudoeste 0 -- -- 44
2019-05-21 20:00:00 22.1 5 Sur 16 Sur 0 -- -- 43
2019-05-21 19:00:00 22.4 8 Sur 20 Sudeste 0 -- -- 46
2019-05-21 18:00:00 22.2 11 Sudeste 26 Noroeste 0 -- -- 48
2019-05-21 17:00:00 22.9 8 Oeste 20 Noroeste 0 -- -- 33
2019-05-21 16:00:00 22.1 9 Noroeste 26 Oeste 0 -- -- 34
2019-05-21 15:00:00 22.2 5 Sur 18 Noroeste 0 -- -- 36
2019-05-21 14:00:00 21.7 6 Nordeste 16 Este 0 -- -- 37
2019-05-21 13:00:00 20.7 9 Este 18 Este 0 -- -- 39
2019-05-21 12:00:00 19.1 5 Nordeste 13 Noroeste 0 -- -- 42
2019-05-21 11:00:00 17.4 4 Nordeste 9 Este 0 -- -- 46
2019-05-21 10:00:00 15.3 2 Sudeste 6 Este 0 -- -- 55
2019-05-21 09:00:00 12.2 0 Calma -- -- 0 -- -- 65
2019-05-21 08:00:00 6.9 0 Calma -- -- 0 -- -- 83
2019-05-21 07:00:00 4 0 Calma -- -- 0 -- -- 89
2019-05-21 06:00:00 4.2 0 Calma -- -- 0 -- -- 88
2019-05-21 05:00:00 4.8 0 Calma -- -- 0 -- -- 86
2019-05-21 04:00:00 5.4 0 Calma -- -- 0 -- -- 83
2019-05-21 03:00:00 6.2 0 Calma -- -- 0 -- -- 80
2019-05-21 02:00:00 7.1 0 Calma -- -- 0 -- -- 77
2019-05-21 01:00:00 8.3 0 Calma -- -- 0 -- -- 74
2019-05-21 00:00:00 10.5 0 Calma -- -- 0 -- -- 65